createdAt,value
2019-04-07T00:01:34.552Z,11.00
2019-04-07T00:07:39.270Z,11.10
2019-04-07T00:13:43.871Z,11.00
2019-04-07T00:19:48.786Z,11.00
2019-04-07T00:25:53.519Z,10.90
2019-04-07T00:31:58.100Z,10.80
2019-04-07T00:38:02.731Z,10.80
2019-04-07T00:44:07.351Z,10.80
2019-04-07T00:50:12.945Z,10.70
2019-04-07T00:56:18.287Z,10.70
2019-04-07T01:02:23.245Z,10.60
2019-04-07T01:08:28.168Z,10.30
2019-04-07T01:14:33.592Z,10.30
2019-04-07T01:20:38.266Z,10.30
2019-04-07T01:26:42.829Z,10.30
2019-04-07T01:32:47.561Z,10.20
2019-04-07T01:38:52.181Z,10.20
2019-04-07T01:45:10.533Z,10.10
2019-04-07T01:51:21.124Z,10.00
2019-04-07T01:57:25.701Z,9.80
2019-04-07T02:03:35.697Z,9.60
2019-04-07T02:09:41.964Z,9.60
2019-04-07T02:15:48.235Z,9.40
2019-04-07T02:21:54.635Z,9.20
2019-04-07T02:28:12.720Z,9.10
2019-04-07T02:34:30.872Z,9.10
2019-04-07T02:40:37.315Z,9.10
2019-04-07T02:46:49.619Z,9.20
2019-04-07T02:52:54.664Z,9.10
2019-04-07T02:59:10.170Z,8.90
2019-04-07T03:05:31.693Z,8.80
2019-04-07T03:11:44.610Z,8.70
2019-04-07T03:18:03.036Z,8.60
2019-04-07T03:24:28.499Z,8.50
2019-04-07T03:30:37.558Z,8.50
2019-04-07T03:37:13.840Z,8.70
2019-04-07T03:42:55.291Z,8.80
2019-04-07T03:48:59.952Z,8.90
2019-04-07T03:55:08.720Z,8.60
2019-04-07T04:01:19.382Z,8.30
2019-04-07T04:07:32.343Z,8.20
2019-04-07T04:13:39.040Z,8.10
2019-04-07T04:19:44.035Z,8.10
2019-04-07T04:25:49.105Z,8.00
2019-04-07T04:31:54.541Z,7.80
2019-04-07T04:37:59.771Z,7.70
2019-04-07T04:44:05.160Z,7.60
2019-04-07T04:50:10.947Z,7.40
2019-04-07T04:56:15.547Z,7.30
2019-04-07T05:02:20.092Z,7.30
2019-04-07T05:08:24.754Z,7.30
2019-04-07T05:14:29.276Z,7.30
2019-04-07T05:20:34.443Z,7.30
2019-04-07T05:26:39.048Z,7.30
2019-04-07T05:32:44.367Z,7.30
2019-04-07T05:38:48.904Z,7.30
2019-04-07T05:44:53.632Z,7.30
2019-04-07T05:50:59.931Z,7.30
2019-04-07T05:57:05.366Z,7.50
2019-04-07T06:03:10.076Z,7.70
2019-04-07T06:09:15.880Z,7.90
2019-04-07T06:15:22.176Z,8.10
2019-04-07T06:21:27.795Z,8.50
2019-04-07T06:27:32.607Z,8.70
2019-04-07T06:33:38.211Z,8.90
2019-04-07T06:39:44.073Z,9.10
2019-04-07T06:46:07.058Z,9.30
2019-04-07T06:52:17.321Z,9.50
2019-04-07T06:58:24.276Z,11.30
2019-04-07T07:04:33.283Z,14.60
2019-04-07T07:10:56.312Z,16.90
2019-04-07T07:17:19.709Z,18.30
2019-04-07T07:23:29.537Z,18.30
2019-04-07T07:29:34.096Z,16.50
2019-04-07T07:35:38.864Z,15.40
2019-04-07T07:41:43.686Z,14.80
2019-04-07T07:47:51.205Z,14.60
2019-04-07T07:53:56.604Z,14.50
2019-04-07T08:00:05.115Z,14.30
2019-04-07T08:06:08.389Z,14.60
2019-04-07T08:12:13.112Z,14.90
2019-04-07T08:18:19.847Z,15.30
2019-04-07T08:24:24.058Z,15.30
2019-04-07T08:30:28.896Z,15.60
2019-04-07T08:36:33.848Z,15.80
2019-04-07T08:42:39.185Z,16.40
2019-04-07T08:48:44.364Z,16.90
2019-04-07T08:54:52.182Z,17.30
2019-04-07T09:00:57.366Z,17.90
2019-04-07T09:07:03.843Z,18.30
2019-04-07T09:13:10.146Z,18.70
2019-04-07T09:19:18.172Z,19.00
2019-04-07T09:25:24.532Z,19.10
2019-04-07T09:31:36.445Z,19.30
2019-04-07T09:37:48.309Z,20.30
2019-04-07T09:44:01.133Z,21.60
2019-04-07T09:50:06.744Z,22.60
2019-04-07T09:56:16.236Z,23.50
2019-04-07T10:02:35.693Z,23.90
2019-04-07T10:08:47.906Z,24.90
2019-04-07T10:15:11.792Z,25.10
2019-04-07T10:21:35.045Z,25.80
2019-04-07T10:27:59.423Z,26.80
2019-04-07T10:34:06.247Z,27.80
2019-04-07T10:40:35.402Z,27.40
2019-04-07T10:46:44.938Z,27.70
2019-04-07T10:52:58.062Z,28.50
2019-04-07T10:59:07.508Z,27.30
2019-04-07T11:05:30.407Z,28.00
2019-04-07T11:11:44.711Z,28.60
2019-04-07T11:18:06.659Z,27.60
2019-04-07T11:24:15.520Z,26.80
2019-04-07T11:30:27.235Z,25.90
2019-04-07T11:36:43.235Z,26.00
2019-04-07T11:43:03.350Z,27.80
2019-04-07T11:49:26.676Z,27.20
2019-04-07T11:55:48.757Z,26.30
2019-04-07T12:01:53.245Z,27.10
2019-04-07T12:08:06.085Z,27.60
2019-04-07T12:14:17.035Z,29.60
2019-04-07T12:20:33.835Z,31.10
2019-04-07T12:26:56.700Z,31.00
2019-04-07T12:33:01.187Z,31.50
2019-04-07T12:39:16.318Z,31.70
2019-04-07T12:45:38.553Z,29.60
2019-04-07T12:51:44.867Z,25.80
2019-04-07T12:57:59.980Z,24.10
2019-04-07T13:04:10.059Z,24.50
2019-04-07T13:10:16.838Z,24.20
2019-04-07T13:16:26.000Z,23.00
2019-04-07T13:22:43.896Z,22.20
2019-04-07T13:29:00.691Z,21.80
2019-04-07T13:35:24.317Z,21.10
2019-04-07T13:41:38.708Z,20.60
2019-04-07T13:47:55.766Z,20.40
2019-04-07T13:54:05.463Z,20.30
2019-04-07T14:00:24.202Z,23.40
2019-04-07T14:06:29.451Z,24.50
2019-04-07T14:12:34.601Z,24.30
2019-04-07T14:18:44.494Z,23.30
2019-04-07T14:24:56.715Z,22.20
2019-04-07T14:31:28.219Z,21.70
2019-04-07T14:37:35.982Z,21.30
2019-04-07T14:43:43.127Z,21.00
2019-04-07T14:49:56.137Z,21.20
2019-04-07T14:56:05.883Z,24.60
2019-04-07T15:02:10.396Z,27.30
2019-04-07T15:08:23.629Z,29.40
2019-04-07T15:14:31.427Z,29.90
2019-04-07T15:20:34.763Z,28.60
2019-04-07T15:26:40.083Z,28.10
2019-04-07T15:32:44.728Z,27.80
2019-04-07T15:38:49.743Z,26.60
2019-04-07T15:44:54.587Z,26.10
2019-04-07T15:51:02.485Z,26.10
2019-04-07T15:57:05.744Z,25.80
2019-04-07T16:03:12.735Z,26.30
2019-04-07T16:09:30.689Z,27.10
2019-04-07T16:15:23.295Z,26.90
2019-04-07T16:21:29.729Z,26.10
2019-04-07T16:27:36.461Z,26.10
2019-04-07T16:33:40.991Z,25.80
2019-04-07T16:39:45.774Z,25.20
2019-04-07T16:45:50.666Z,23.70
2019-04-07T16:51:58.367Z,23.40
2019-04-07T16:58:02.916Z,23.00
2019-04-07T17:04:08.328Z,23.10
2019-04-07T17:10:13.400Z,23.00
2019-04-07T17:16:22.603Z,22.70
2019-04-07T17:22:25.132Z,22.40
2019-04-07T17:28:29.862Z,21.90
2019-04-07T17:34:35.388Z,20.70
2019-04-07T17:40:51.818Z,19.90
2019-04-07T17:47:13.894Z,19.00
2019-04-07T17:53:20.086Z,17.90
2019-04-07T17:59:24.420Z,17.00
2019-04-07T18:05:29.275Z,16.30
2019-04-07T18:11:47.670Z,15.80
2019-04-07T18:18:10.346Z,15.40
2019-04-07T18:24:16.852Z,14.90
2019-04-07T18:30:25.948Z,14.40
2019-04-07T18:36:42.672Z,14.10
2019-04-07T18:42:51.418Z,13.80
2019-04-07T18:49:15.852Z,13.50
2019-04-07T18:55:39.338Z,13.30
2019-04-07T19:01:52.603Z,13.10
2019-04-07T19:08:17.462Z,13.10
2019-04-07T19:14:45.967Z,13.00
2019-04-07T19:21:02.996Z,13.00
2019-04-07T19:27:21.178Z,13.00
2019-04-07T19:33:24.479Z,13.30
2019-04-07T19:39:32.956Z,13.50
2019-04-07T19:45:39.286Z,13.50
2019-04-07T19:51:46.956Z,13.50
2019-04-07T19:57:54.819Z,13.40
2019-04-07T20:04:03.745Z,13.20
2019-04-07T20:10:16.417Z,13.10
2019-04-07T20:16:21.933Z,12.90
2019-04-07T20:22:41.402Z,12.80
2019-04-07T20:28:47.752Z,12.60
2019-04-07T20:34:59.038Z,12.70
2019-04-07T20:41:17.587Z,12.70
2019-04-07T20:47:40.395Z,12.70
2019-04-07T20:53:45.121Z,12.80
2019-04-07T20:59:55.166Z,12.70
2019-04-07T21:06:06.339Z,12.80
2019-04-07T21:12:30.192Z,12.90
2019-04-07T21:18:40.277Z,13.00
2019-04-07T21:25:02.548Z,13.00
2019-04-07T21:31:26.049Z,12.80
2019-04-07T21:37:35.848Z,12.90
2019-04-07T21:43:46.680Z,12.70
2019-04-07T21:50:07.559Z,12.50
2019-04-07T21:56:22.244Z,12.40
2019-04-07T22:02:31.496Z,12.30
2019-04-07T22:08:43.344Z,12.20
2019-04-07T22:14:47.567Z,12.20
2019-04-07T22:20:54.533Z,12.20
2019-04-07T22:26:59.336Z,12.10
2019-04-07T22:33:04.242Z,12.20
2019-04-07T22:39:09.004Z,12.10
2019-04-07T22:45:14.825Z,12.00
2019-04-07T22:51:19.666Z,11.80
2019-04-07T22:57:24.326Z,11.40
2019-04-07T23:03:29.293Z,11.10
2019-04-07T23:09:34.040Z,10.80
2019-04-07T23:15:44.338Z,10.50
2019-04-07T23:21:44.883Z,10.30
2019-04-07T23:27:50.015Z,10.10
2019-04-07T23:33:54.642Z,9.80
2019-04-07T23:40:00.170Z,9.50
2019-04-07T23:46:05.328Z,9.30
2019-04-07T23:52:09.890Z,9.30
2019-04-07T23:58:14.458Z,9.20
